Time;durP1;ratioP1;P1;durP2;ratioP2;P2;SDS_P1;SDS_P2;PMS_P1;PMS_P2;Temp;Humidity;BMP_temperature;BMP_pressure;BME280_temperature;BME280_humidity;BME280_pressure;Samples;Min_cycle;Max_cycle;Signal;HPM_P1;HPM_P2
2023/09/07 00:01:53;;;;;;;3.47;2.85;;;20.70;97.90;;;;;;5095413;27;20039;-73
2023/09/07 00:04:21;;;;;;;3.88;2.33;;;20.70;98.10;;;;;;5090865;27;20035;-73
2023/09/07 00:06:49;;;;;;;3.10;1.73;;;20.60;98.20;;;;;;5096005;27;20028;-72
2023/09/07 00:09:18;;;;;;;3.67;1.65;;;20.60;98.30;;;;;;5095459;27;20034;-73
2023/09/07 00:11:45;;;;;;;5.05;1.88;;;20.60;98.50;;;;;;5079002;28;20040;-73
2023/09/07 00:14:11;;;;;;;1.50;1.15;;;20.50;98.60;;;;;;5078791;28;20034;-73
2023/09/07 00:16:38;;;;;;;2.10;0.98;;;20.50;98.60;;;;;;5096495;28;20524;-73
2023/09/07 00:19:05;;;;;;;1.70;0.90;;;20.40;98.80;;;;;;5093911;27;20373;-74
2023/09/07 00:21:31;;;;;;;1.80;0.88;;;20.40;98.90;;;;;;5095828;28;20482;-74
2023/09/07 00:23:58;;;;;;;1.45;0.77;;;20.40;99.10;;;;;;5075544;28;20036;-72
2023/09/07 00:26:24;;;;;;;1.70;1.02;;;20.30;99.20;;;;;;5093657;28;20387;-74
2023/09/07 00:28:51;;;;;;;2.28;1.10;;;20.30;99.30;;;;;;5078047;28;20405;-73
2023/09/07 00:31:17;;;;;;;2.50;1.35;;;20.20;99.60;;;;;;5079185;28;20040;-73
2023/09/07 00:33:44;;;;;;;2.17;0.80;;;20.20;99.70;;;;;;5094349;28;20039;-71
2023/09/07 00:36:10;;;;;;;1.30;0.73;;;20.10;99.90;;;;;;5097860;28;20058;-73
2023/09/07 00:38:37;;;;;;;1.63;0.75;;;20.10;99.90;;;;;;5078410;28;20040;-73
2023/09/07 00:41:03;;;;;;;2.88;0.82;;;20.00;99.90;;;;;;5062031;28;20035;-71
2023/09/07 00:43:30;;;;;;;1.50;0.77;;;20.00;99.90;;;;;;5076991;28;20047;-72
2023/09/07 00:45:56;;;;;;;1.73;1.05;;;20.00;99.90;;;;;;5094909;28;20042;-71
2023/09/07 00:48:23;;;;;;;2.13;0.95;;;20.00;99.90;;;;;;5063434;28;20043;-73
2023/09/07 00:50:50;;;;;;;1.60;0.90;;;20.00;99.90;;;;;;5060882;28;20039;-73
2023/09/07 00:53:17;;;;;;;1.90;0.90;;;19.90;99.90;;;;;;5090693;28;20035;-75
2023/09/07 00:55:45;;;;;;;1.90;1.17;;;19.90;99.90;;;;;;5096255;28;20478;-73
2023/09/07 00:58:12;;;;;;;1.80;1.30;;;19.90;99.90;;;;;;5096468;28;20038;-73
2023/09/07 01:00:40;;;;;;;1.85;1.27;;;19.80;99.90;;;;;;5092389;28;20035;-71
2023/09/07 01:03:07;;;;;;;2.53;1.13;;;19.80;99.90;;;;;;5079520;27;20035;-72
2023/09/07 01:05:58;;;;;;;2.60;1.10;;;19.80;99.90;;;;;;5096238;27;20039;-73
2023/09/07 01:08:31;;;;;;;1.27;1.00;;;19.80;99.90;;;;;;5087884;27;20429;-71
2023/09/07 01:10:58;;;;;;;2.22;0.98;;;19.80;99.90;;;;;;5079252;27;20040;-74
2023/09/07 01:13:24;;;;;;;2.63;1.20;;;19.70;99.90;;;;;;5097457;27;20047;-73
2023/09/07 01:15:51;;;;;;;1.75;1.00;;;19.70;99.90;;;;;;5079509;27;20057;-73
2023/09/07 01:18:19;;;;;;;2.88;1.17;;;19.70;99.90;;;;;;5083309;27;20032;-73
2023/09/07 01:20:48;;;;;;;2.15;1.00;;;19.70;99.90;;;;;;5099723;27;20035;-73
2023/09/07 01:23:15;;;;;;;1.83;1.00;;;19.70;99.90;;;;;;5078392;28;20039;-73
2023/09/07 01:25:42;;;;;;;2.58;0.98;;;19.70;99.90;;;;;;5096548;27;20058;-74
2023/09/07 01:28:09;;;;;;;4.35;1.33;;;19.60;99.90;;;;;;5079123;27;20478;-72
2023/09/07 01:30:38;;;;;;;2.25;1.33;;;19.60;99.90;;;;;;5063624;27;20031;-75
2023/09/07 01:33:05;;;;;;;1.85;1.20;;;19.60;99.90;;;;;;5098714;27;20038;-73
2023/09/07 01:35:33;;;;;;;2.25;1.50;;;19.60;99.90;;;;;;5095371;27;20058;-71
2023/09/07 01:37:59;;;;;;;2.17;1.30;;;19.60;99.90;;;;;;5076682;28;20035;-73
2023/09/07 01:40:26;;;;;;;2.60;1.67;;;19.60;99.90;;;;;;5101907;27;20027;-73
2023/09/07 01:42:52;;;;;;;3.90;1.58;;;19.60;99.90;;;;;;5096033;27;20031;-73
2023/09/07 01:45:19;;;;;;;1.98;1.25;;;19.60;99.90;;;;;;5095545;27;20038;-72
2023/09/07 01:47:45;;;;;;;2.00;1.23;;;19.60;99.90;;;;;;5083454;28;20035;-73
2023/09/07 01:50:14;;;;;;;1.90;1.17;;;19.60;99.90;;;;;;5095359;27;20030;-74
2023/09/07 01:52:41;;;;;;;2.22;1.13;;;19.60;99.90;;;;;;5094735;27;20042;-73
2023/09/07 01:55:08;;;;;;;1.90;1.00;;;19.60;99.90;;;;;;5080059;27;20031;-73
2023/09/07 01:57:35;;;;;;;1.90;1.15;;;19.50;99.90;;;;;;5081577;27;20048;-73
2023/09/07 02:00:01;;;;;;;2.05;0.93;;;19.50;99.90;;;;;;5078690;28;20031;-73
2023/09/07 02:02:28;;;;;;;1.77;0.90;;;19.50;99.90;;;;;;5095018;27;20036;-75
2023/09/07 02:04:55;;;;;;;2.17;1.00;;;19.40;99.90;;;;;;5096314;27;20073;-73
2023/09/07 02:07:22;;;;;;;2.00;1.27;;;19.40;99.90;;;;;;5095689;27;20027;-71
2023/09/07 02:09:48;;;;;;;1.63;1.10;;;19.40;99.90;;;;;;5113022;27;20030;-73
2023/09/07 02:12:15;;;;;;;3.47;1.25;;;19.40;99.90;;;;;;5099388;27;20039;-73
2023/09/07 02:14:41;;;;;;;1.35;0.80;;;19.30;99.90;;;;;;5078868;27;21795;-73
2023/09/07 02:17:07;;;;;;;1.50;1.00;;;19.30;99.90;;;;;;5098159;27;20081;-72
2023/09/07 02:19:35;;;;;;;1.50;1.20;;;19.30;99.90;;;;;;5097779;27;20061;-72
2023/09/07 02:22:01;;;;;;;1.50;0.85;;;19.30;99.90;;;;;;5080693;27;20687;-72
2023/09/07 02:24:28;;;;;;;2.00;1.30;;;19.30;99.90;;;;;;5076776;27;20051;-73
2023/09/07 02:26:55;;;;;;;1.63;1.00;;;19.30;99.90;;;;;;5079797;27;20027;-71
2023/09/07 02:29:22;;;;;;;1.95;1.13;;;19.30;99.90;;;;;;5078537;27;20466;-73
2023/09/07 02:31:49;;;;;;;1.40;1.15;;;19.20;99.90;;;;;;5079405;27;20027;-74
2023/09/07 02:34:15;;;;;;;1.33;1.02;;;19.20;99.90;;;;;;5058867;27;20032;-74
2023/09/07 02:36:41;;;;;;;1.63;0.98;;;19.20;99.90;;;;;;5062118;27;20043;-72
2023/09/07 02:39:08;;;;;;;1.60;0.95;;;19.10;99.90;;;;;;5096363;27;20482;-74
2023/09/07 02:41:35;;;;;;;1.50;1.20;;;19.10;99.90;;;;;;5079024;27;20032;-73
2023/09/07 02:44:02;;;;;;;4.25;1.70;;;19.00;99.90;;;;;;5094917;27;20526;-74
2023/09/07 02:46:29;;;;;;;1.60;1.20;;;19.00;99.90;;;;;;5078869;27;20050;-73
2023/09/07 02:48:59;;;;;;;3.13;1.25;;;19.00;99.90;;;;;;5078914;27;20047;-74
2023/09/07 02:51:26;;;;;;;1.88;1.13;;;19.00;99.90;;;;;;5078764;28;20050;-74
2023/09/07 02:53:57;;;;;;;2.20;1.35;;;19.00;99.90;;;;;;5079352;27;20035;-73
2023/09/07 02:56:25;;;;;;;1.90;1.10;;;19.00;99.90;;;;;;5094293;27;20035;-73
2023/09/07 02:58:53;;;;;;;1.95;0.90;;;19.00;99.90;;;;;;5062943;27;20031;-72
2023/09/07 03:01:26;;;;;;;2.17;1.48;;;18.90;99.90;;;;;;5095657;27;20023;-74
2023/09/07 03:03:53;;;;;;;2.05;1.30;;;18.90;99.90;;;;;;5096541;27;20039;-74
2023/09/07 03:06:20;;;;;;;2.08;1.27;;;18.80;99.90;;;;;;5060957;27;20031;-72
2023/09/07 03:08:52;;;;;;;3.22;1.33;;;18.80;99.90;;;;;;5078102;28;20027;-73
2023/09/07 03:11:18;;;;;;;2.33;1.20;;;18.80;99.90;;;;;;5080286;27;20535;-73
2023/09/07 03:13:48;;;;;;;1.38;0.88;;;18.70;99.90;;;;;;5077052;27;20035;-71
2023/09/07 03:16:14;;;;;;;1.83;1.13;;;18.70;99.90;;;;;;5095442;27;20043;-73
2023/09/07 03:18:41;;;;;;;2.03;0.90;;;18.70;99.90;;;;;;5078485;27;20031;-73
2023/09/07 03:21:08;;;;;;;2.33;1.38;;;18.60;99.90;;;;;;5090435;27;20036;-74
2023/09/07 03:23:35;;;;;;;2.42;1.20;;;18.70;99.90;;;;;;5077276;27;20057;-72
2023/09/07 03:26:02;;;;;;;1.52;0.95;;;18.60;99.90;;;;;;5072997;27;20036;-72
2023/09/07 03:28:29;;;;;;;2.53;1.13;;;18.60;99.90;;;;;;5061270;28;20036;-74
2023/09/07 03:30:56;;;;;;;1.65;1.27;;;18.60;99.90;;;;;;5096514;27;20030;-72
2023/09/07 03:33:22;;;;;;;2.45;0.85;;;18.50;99.90;;;;;;5093236;27;20031;-73
2023/09/07 03:35:49;;;;;;;1.85;1.10;;;18.50;99.90;;;;;;5093773;27;20481;-73
2023/09/07 03:38:15;;;;;;;2.00;1.50;;;18.50;99.90;;;;;;5079304;27;20027;-73
2023/09/07 03:40:42;;;;;;;2.00;1.23;;;18.40;99.90;;;;;;5097192;27;20517;-71
2023/09/07 03:43:09;;;;;;;1.88;1.27;;;18.40;99.90;;;;;;5094891;27;20047;-73
2023/09/07 03:45:35;;;;;;;2.42;1.42;;;18.40;99.90;;;;;;5076498;27;20036;-74
2023/09/07 03:48:02;;;;;;;2.63;1.50;;;18.30;99.90;;;;;;5060718;28;20046;-74
2023/09/07 03:50:30;;;;;;;2.20;1.42;;;18.30;99.90;;;;;;5090620;27;20051;-72
2023/09/07 03:52:56;;;;;;;5.03;1.48;;;18.30;99.90;;;;;;5094811;27;20063;-72
2023/09/07 03:55:23;;;;;;;2.13;1.42;;;18.30;99.90;;;;;;5074564;27;20023;-71
2023/09/07 03:57:50;;;;;;;1.98;1.30;;;18.30;99.90;;;;;;5060836;28;20042;-71
2023/09/07 04:00:17;;;;;;;2.50;1.42;;;18.30;99.90;;;;;;5076479;28;20089;-71
2023/09/07 04:02:47;;;;;;;2.03;1.15;;;18.30;99.90;;;;;;5076419;27;20034;-73
2023/09/07 04:05:14;;;;;;;2.15;1.20;;;18.20;99.90;;;;;;5093556;27;20054;-74
2023/09/07 04:07:40;;;;;;;1.60;1.00;;;18.20;99.90;;;;;;5078469;27;20035;-74
2023/09/07 04:10:07;;;;;;;1.60;1.38;;;18.20;99.90;;;;;;5058252;28;20373;-73
2023/09/07 04:12:33;;;;;;;2.75;1.23;;;18.20;99.90;;;;;;5094396;27;20031;-73
2023/09/07 04:15:03;;;;;;;3.33;1.42;;;18.20;99.90;;;;;;5059535;28;20039;-73
2023/09/07 04:17:30;;;;;;;1.50;0.95;;;18.20;99.90;;;;;;5062290;28;20398;-72
2023/09/07 04:19:56;;;;;;;1.88;1.50;;;18.20;99.90;;;;;;5062918;28;20044;-73
2023/09/07 04:22:23;;;;;;;1.40;1.05;;;18.20;99.90;;;;;;5096260;28;20492;-73
2023/09/07 04:24:49;;;;;;;1.88;1.30;;;18.10;99.90;;;;;;5077358;28;20036;-74
2023/09/07 04:27:16;;;;;;;1.67;1.23;;;18.10;99.90;;;;;;5062548;28;20035;-71
2023/09/07 04:29:44;;;;;;;2.03;1.33;;;18.00;99.90;;;;;;5094446;28;20040;-74
2023/09/07 04:32:10;;;;;;;2.83;1.63;;;18.00;99.90;;;;;;5092999;28;20023;-73
2023/09/07 04:34:36;;;;;;;2.00;1.42;;;18.00;99.90;;;;;;5076496;28;20035;-72
2023/09/07 04:37:03;;;;;;;2.10;1.42;;;18.00;99.90;;;;;;5079378;27;20026;-71
2023/09/07 04:39:29;;;;;;;2.00;1.30;;;18.00;99.90;;;;;;5083390;27;20039;-73
2023/09/07 04:41:56;;;;;;;2.00;1.02;;;18.00;99.90;;;;;;5101283;27;21140;-72
2023/09/07 04:44:22;;;;;;;1.88;1.42;;;18.00;99.90;;;;;;5101905;27;20058;-74
2023/09/07 04:46:50;;;;;;;2.22;1.35;;;18.00;99.90;;;;;;5082580;27;20058;-71
2023/09/07 04:49:16;;;;;;;2.05;1.38;;;17.90;99.90;;;;;;5096177;27;20032;-73
2023/09/07 04:51:43;;;;;;;2.63;1.45;;;17.90;99.90;;;;;;5063841;27;20521;-74
2023/09/07 04:54:09;;;;;;;2.95;1.73;;;17.90;99.90;;;;;;5060179;28;20040;-72
2023/09/07 04:56:36;;;;;;;2.38;1.60;;;17.90;99.90;;;;;;5081100;28;20486;-73
2023/09/07 04:59:02;;;;;;;2.67;1.83;;;17.90;99.90;;;;;;5079891;27;20676;-73
2023/09/07 05:01:29;;;;;;;2.85;1.98;;;17.90;99.90;;;;;;5096971;27;20055;-73
2023/09/07 05:03:57;;;;;;;1.80;1.40;;;17.90;99.90;;;;;;5078051;28;20031;-72
2023/09/07 05:06:23;;;;;;;4.18;1.98;;;17.90;99.90;;;;;;5095791;27;20042;-73
2023/09/07 05:08:49;;;;;;;4.07;1.80;;;17.90;99.90;;;;;;5096273;27;20405;-73
2023/09/07 05:11:16;;;;;;;2.42;1.50;;;17.90;99.90;;;;;;5063766;27;20058;-72
2023/09/07 05:13:42;;;;;;;2.05;1.77;;;17.90;99.90;;;;;;5080208;27;20039;-73
2023/09/07 05:16:09;;;;;;;3.35;2.13;;;17.90;99.90;;;;;;5080472;27;20031;-72
2023/09/07 05:18:36;;;;;;;1.83;1.30;;;17.90;99.90;;;;;;5078396;28;20371;-73
2023/09/07 05:21:14;;;;;;;2.42;1.63;;;17.90;99.90;;;;;;5065656;27;20038;-73
2023/09/07 05:23:41;;;;;;;2.80;1.90;;;17.90;99.90;;;;;;5059070;27;20027;-74
2023/09/07 05:26:08;;;;;;;2.75;2.40;;;17.90;99.90;;;;;;5096705;27;20035;-74
2023/09/07 05:28:35;;;;;;;3.20;2.38;;;18.00;99.90;;;;;;5093793;27;20039;-75
2023/09/07 05:31:01;;;;;;;3.63;2.83;;;18.00;99.90;;;;;;5076647;28;20035;-74
2023/09/07 05:33:28;;;;;;;3.05;2.40;;;18.00;99.90;;;;;;5093590;27;20031;-73
2023/09/07 05:35:54;;;;;;;2.10;1.77;;;18.00;99.90;;;;;;5092416;27;20024;-73
2023/09/07 05:38:20;;;;;;;2.47;1.95;;;18.10;99.90;;;;;;5092508;27;20494;-73
2023/09/07 05:40:50;;;;;;;3.20;2.15;;;18.10;99.90;;;;;;5079482;27;20062;-73
2023/09/07 05:43:17;;;;;;;2.72;2.35;;;18.20;99.90;;;;;;5080185;28;20040;-73
2023/09/07 05:45:44;;;;;;;4.28;2.60;;;18.20;99.90;;;;;;5093967;27;20028;-74
2023/09/07 05:48:11;;;;;;;3.33;2.75;;;18.20;99.90;;;;;;5064410;27;20034;-72
2023/09/07 05:50:38;;;;;;;2.40;1.85;;;18.30;99.90;;;;;;5095443;27;20038;-73
2023/09/07 05:53:06;;;;;;;2.55;2.15;;;18.30;99.90;;;;;;5076787;28;20028;-73
2023/09/07 05:55:33;;;;;;;2.38;1.83;;;18.40;99.90;;;;;;5081735;27;20032;-71
2023/09/07 05:58:04;;;;;;;3.03;1.83;;;18.50;99.90;;;;;;5062174;27;20043;-75
2023/09/07 06:00:32;;;;;;;3.95;1.98;;;18.60;99.90;;;;;;5078293;28;20035;-79
2023/09/07 06:02:58;;;;;;;2.72;2.08;;;18.60;99.90;;;;;;5061777;27;20337;-74
2023/09/07 06:05:25;;;;;;;5.35;2.50;;;18.80;99.90;;;;;;5079437;27;20039;-74
2023/09/07 06:07:52;;;;;;;3.65;2.17;;;18.90;99.90;;;;;;5079875;27;20036;-77
2023/09/07 06:10:19;;;;;;;2.70;2.40;;;19.00;99.90;;;;;;5097029;27;20409;-75
2023/09/07 06:12:46;;;;;;;3.75;2.70;;;19.20;99.90;;;;;;5065960;28;20081;-73
2023/09/07 06:15:13;;;;;;;2.60;2.40;;;19.40;99.90;;;;;;5077935;27;20140;-72
2023/09/07 06:17:40;;;;;;;3.03;2.67;;;19.60;99.90;;;;;;5080592;28;20039;-74
2023/09/07 06:20:08;;;;;;;2.50;2.08;;;19.70;99.90;;;;;;5095292;27;20042;-72
2023/09/07 06:22:34;;;;;;;3.85;3.22;;;19.90;99.90;;;;;;5067064;27;20027;-71
2023/09/07 06:25:01;;;;;;;2.72;2.35;;;20.00;99.90;;;;;;5095539;27;20399;-74
2023/09/07 06:27:28;;;;;;;3.53;2.42;;;20.20;99.90;;;;;;5080052;28;20047;-72
2023/09/07 06:29:55;;;;;;;3.88;2.53;;;20.30;99.90;;;;;;5082718;27;20561;-71
2023/09/07 06:32:21;;;;;;;3.33;2.75;;;20.40;99.90;;;;;;5095079;27;20032;-73
2023/09/07 06:34:48;;;;;;;5.30;3.72;;;20.50;99.90;;;;;;5079578;27;20027;-73
2023/09/07 06:37:15;;;;;;;11.65;10.20;;;20.60;99.90;;;;;;5079335;27;20047;-73
2023/09/07 06:39:44;;;;;;;6.18;5.28;;;20.80;99.90;;;;;;5098827;27;20034;-73
2023/09/07 06:42:10;;;;;;;5.85;4.13;;;20.80;99.90;;;;;;5061284;28;20038;-73
2023/09/07 06:44:52;;;;;;;5.68;3.65;;;20.90;99.90;;;;;;5098394;27;20042;-74
2023/09/07 06:47:18;;;;;;;5.25;3.35;;;21.00;99.90;;;;;;5078017;27;20035;-74
2023/09/07 06:49:45;;;;;;;4.28;3.70;;;21.10;99.90;;;;;;5061800;27;20027;-74
2023/09/07 06:52:11;;;;;;;3.78;3.35;;;21.20;99.90;;;;;;5097753;27;20027;-72
2023/09/07 06:54:39;;;;;;;5.55;3.42;;;21.20;99.90;;;;;;5093200;27;20120;-72
2023/09/07 06:57:09;;;;;;;4.22;3.53;;;21.30;99.90;;;;;;5080803;27;20485;-74
2023/09/07 06:59:35;;;;;;;3.30;3.00;;;21.40;99.90;;;;;;5062111;28;20046;-74
2023/09/07 07:02:04;;;;;;;3.33;2.97;;;21.50;99.90;;;;;;5065307;27;20023;-73
2023/09/07 07:04:31;;;;;;;3.30;3.00;;;21.50;99.90;;;;;;5058652;28;20042;-72
2023/09/07 07:06:58;;;;;;;3.63;3.33;;;21.60;99.90;;;;;;5077757;28;20028;-74
2023/09/07 07:09:24;;;;;;;3.08;2.40;;;21.70;99.90;;;;;;5097377;27;20028;-74
2023/09/07 07:11:51;;;;;;;3.63;2.08;;;21.80;99.90;;;;;;5095415;27;20032;-71
2023/09/07 07:14:17;;;;;;;4.00;3.40;;;21.90;99.90;;;;;;5073880;27;20406;-73
2023/09/07 07:16:44;;;;;;;3.28;2.97;;;22.00;99.90;;;;;;5079878;27;20035;-71
2023/09/07 07:19:10;;;;;;;3.55;2.65;;;22.10;99.90;;;;;;5077635;28;20054;-71
2023/09/07 07:21:37;;;;;;;3.40;2.17;;;22.20;99.90;;;;;;5061919;28;20089;-72
2023/09/07 07:24:07;;;;;;;4.40;3.10;;;22.20;99.90;;;;;;5074574;27;20040;-74
2023/09/07 07:26:34;;;;;;;3.10;2.30;;;22.30;99.90;;;;;;5091727;27;20031;-72
2023/09/07 07:29:02;;;;;;;2.15;1.73;;;22.50;99.90;;;;;;5079910;28;20040;-73
2023/09/07 07:31:29;;;;;;;3.80;2.50;;;22.60;99.90;;;;;;5061893;28;20525;-72
2023/09/07 07:33:56;;;;;;;4.00;2.63;;;22.70;99.90;;;;;;5082241;27;20031;-72
2023/09/07 07:36:23;;;;;;;3.47;2.13;;;22.80;99.90;;;;;;5090622;27;20059;-72
2023/09/07 07:38:49;;;;;;;2.40;1.88;;;22.90;99.90;;;;;;5064435;27;20027;-72
2023/09/07 07:41:16;;;;;;;2.80;2.15;;;23.00;99.90;;;;;;5078996;27;20044;-72
2023/09/07 07:43:43;;;;;;;3.15;1.92;;;23.10;99.90;;;;;;5076819;28;20048;-73
2023/09/07 07:46:09;;;;;;;2.60;2.40;;;23.30;99.90;;;;;;5093268;27;20039;-72
2023/09/07 07:48:37;;;;;;;3.17;2.40;;;23.30;99.90;;;;;;5096145;27;20028;-73
2023/09/07 07:51:05;;;;;;;2.53;1.70;;;23.40;99.90;;;;;;5094906;27;20046;-73
2023/09/07 07:53:33;;;;;;;3.40;2.55;;;23.50;99.90;;;;;;5078154;27;20023;-72
2023/09/07 07:55:59;;;;;;;2.30;1.90;;;23.60;99.90;;;;;;5095953;27;20036;-72
2023/09/07 07:58:26;;;;;;;3.00;2.05;;;23.70;99.90;;;;;;5079111;28;20425;-72
2023/09/07 08:42:17;;;;;;;2.63;2.13;;;25.40;99.90;;;;;;5096954;27;20718;-71
2023/09/07 08:44:46;;;;;;;3.25;2.25;;;25.50;99.90;;;;;;5035923;28;20063;-71
2023/09/07 08:47:14;;;;;;;3.28;1.77;;;25.60;99.90;;;;;;5077358;28;20040;-71
2023/09/07 08:49:43;;;;;;;4.57;3.20;;;25.70;99.90;;;;;;5059374;28;20035;-71
2023/09/07 08:52:10;;;;;;;3.10;2.05;;;25.80;99.90;;;;;;5073339;28;20044;-72
2023/09/07 08:54:38;;;;;;;5.60;2.75;;;25.90;99.90;;;;;;5072038;28;20035;-73
2023/09/07 08:57:06;;;;;;;2.53;2.00;;;26.00;99.90;;;;;;5077754;28;20039;-77
2023/09/07 08:59:32;;;;;;;2.65;2.45;;;26.10;99.90;;;;;;5044927;28;20039;-76
2023/09/07 09:01:59;;;;;;;2.28;2.08;;;26.20;99.90;;;;;;5046541;28;21071;-72
2023/09/07 09:04:27;;;;;;;3.00;2.30;;;26.30;99.90;;;;;;5061203;28;20046;-71
2023/09/07 09:06:54;;;;;;;2.95;2.50;;;26.40;99.90;;;;;;5057898;28;20534;-72
2023/09/07 09:09:24;;;;;;;4.10;2.72;;;26.50;99.90;;;;;;5063174;28;20020;-72
2023/09/07 09:11:51;;;;;;;2.42;1.90;;;26.70;99.90;;;;;;5056941;28;20043;-72
2023/09/07 09:14:27;;;;;;;4.18;2.20;;;26.80;99.90;;;;;;5059945;28;20050;-73
2023/09/07 09:16:55;;;;;;;4.35;3.33;;;26.80;99.90;;;;;;5061108;28;20027;-73
2023/09/07 09:19:34;;;;;;;3.63;2.42;;;26.90;99.90;;;;;;5060141;28;20504;-72
2023/09/07 09:22:01;;;;;;;3.45;2.00;;;27.00;99.90;;;;;;5060883;28;20028;-72
2023/09/07 09:24:31;;;;;;;3.03;1.80;;;27.10;99.80;;;;;;5079331;28;20493;-73
2023/09/07 09:26:57;;;;;;;3.92;3.35;;;27.30;99.80;;;;;;5077256;27;20024;-73
2023/09/07 09:29:24;;;;;;;3.10;1.88;;;27.40;99.30;;;;;;5037007;28;20040;-72
2023/09/07 09:31:52;;;;;;;3.15;2.40;;;27.50;99.30;;;;;;5072090;28;20028;-71
2023/09/07 09:34:20;;;;;;;2.80;2.10;;;27.60;99.10;;;;;;5068877;28;20675;-73
2023/09/07 09:36:46;;;;;;;2.78;2.33;;;27.70;99.00;;;;;;5082023;28;20470;-70
2023/09/07 09:39:24;;;;;;;3.30;1.70;;;27.80;98.70;;;;;;5047117;28;20044;-71
2023/09/07 09:41:53;;;;;;;4.45;1.75;;;27.90;98.60;;;;;;5084719;28;20358;-72
2023/09/07 09:44:25;;;;;;;2.10;1.75;;;27.90;98.50;;;;;;5079161;28;20375;-72
2023/09/07 09:46:56;;;;;;;3.42;1.70;;;28.10;98.30;;;;;;5044031;28;20391;-72
2023/09/07 09:49:23;;;;;;;3.38;2.00;;;28.20;98.00;;;;;;5060210;28;20032;-72
2023/09/07 10:05:09;;;;;;;2.00;1.50;;;28.60;97.40;;;;;;5092329;28;20043;-73
2023/09/07 10:07:44;;;;;;;2.83;1.67;;;28.80;97.30;;;;;;5050816;28;20043;-72
2023/09/07 10:10:13;;;;;;;2.72;1.77;;;29.00;97.30;;;;;;5075957;28;20039;-73
2023/09/07 10:12:41;;;;;;;6.72;2.53;;;29.10;96.90;;;;;;5074528;28;20399;-74
2023/09/07 10:15:27;;;;;;;2.88;2.55;;;29.30;96.30;;;;;;5054785;28;20032;-73
2023/09/07 10:18:32;;;;;;;2.00;1.80;;;29.50;96.10;;;;;;5055163;28;20039;-72
2023/09/07 10:20:59;;;;;;;3.17;2.03;;;29.70;95.80;;;;;;5063167;28;20554;-73
2023/09/07 10:23:43;;;;;;;2.55;2.00;;;30.00;95.30;;;;;;5054043;28;20483;-72
2023/09/07 10:26:17;;;;;;;2.28;1.33;;;30.40;95.00;;;;;;5057023;28;20051;-72
2023/09/07 10:28:45;;;;;;;1.90;1.35;;;30.70;94.70;;;;;;5041142;28;20371;-73
2023/09/07 10:31:19;;;;;;;3.28;2.00;;;31.10;94.20;;;;;;5060657;28;20028;-82
2023/09/07 10:33:46;;;;;;;3.53;1.70;;;31.50;93.70;;;;;;5089786;28;20035;-76
2023/09/07 10:36:24;;;;;;;2.30;1.83;;;31.80;93.00;;;;;;5055115;28;20024;-73
2023/09/07 10:38:54;;;;;;;3.60;1.52;;;32.10;91.70;;;;;;5053180;28;20048;-73
2023/09/07 10:41:20;;;;;;;4.40;1.70;;;32.40;91.40;;;;;;5072122;28;20032;-72
2023/09/07 10:43:53;;;;;;;3.00;1.90;;;32.80;91.20;;;;;;5089746;28;20028;-75
2023/09/07 10:46:21;;;;;;;2.00;1.80;;;33.10;90.50;;;;;;5058594;28;20048;-75
2023/09/07 10:48:52;;;;;;;1.88;1.50;;;33.50;89.70;;;;;;5075002;28;20034;-73
2023/09/07 10:51:19;;;;;;;3.70;2.05;;;33.90;88.40;;;;;;5092050;28;20032;-76
2023/09/07 10:53:46;;;;;;;3.63;1.48;;;34.30;86.60;;;;;;5091386;28;20027;-74
2023/09/07 10:56:12;;;;;;;2.45;1.60;;;34.50;85.50;;;;;;5074915;28;20027;-75
2023/09/07 10:58:40;;;;;;;2.17;1.40;;;34.70;83.90;;;;;;5085692;28;20514;-74
2023/09/07 11:01:07;;;;;;;3.17;1.67;;;35.00;83.20;;;;;;5075041;28;20035;-78
2023/09/07 11:03:34;;;;;;;2.97;1.38;;;35.40;80.70;;;;;;5109677;27;20031;-77
2023/09/07 11:06:11;;;;;;;3.05;1.90;;;35.50;78.60;;;;;;5091564;28;20039;-77
2023/09/07 11:08:38;;;;;;;3.15;1.98;;;35.60;77.60;;;;;;5070967;28;20031;-76
2023/09/07 11:11:05;;;;;;;1.85;1.17;;;35.70;76.40;;;;;;5051370;28;20041;-74
2023/09/07 11:13:31;;;;;;;3.80;1.27;;;36.00;75.60;;;;;;5093630;28;20050;-75
2023/09/07 11:15:59;;;;;;;2.63;1.25;;;36.20;73.70;;;;;;5109307;28;20035;-74
2023/09/07 11:18:26;;;;;;;1.98;1.10;;;36.30;72.20;;;;;;5108933;28;20031;-74
2023/09/07 11:20:53;;;;;;;1.65;1.10;;;36.40;71.70;;;;;;5071784;28;20043;-74
2023/09/07 11:23:21;;;;;;;2.88;1.08;;;36.80;71.00;;;;;;5091122;28;20098;-74
2023/09/07 11:25:48;;;;;;;1.88;1.60;;;37.10;70.60;;;;;;5093368;28;20036;-75
2023/09/07 11:28:18;;;;;;;2.97;1.27;;;37.30;69.40;;;;;;5057205;27;20023;-76
2023/09/07 11:30:55;;;;;;;2.28;1.30;;;37.40;68.60;;;;;;5077208;28;20032;-76
2023/09/07 11:33:25;;;;;;;3.22;1.92;;;37.80;67.50;;;;;;5074217;28;20393;-75
2023/09/07 11:35:54;;;;;;;2.20;1.50;;;37.90;66.60;;;;;;5109346;28;20374;-76
2023/09/07 11:38:20;;;;;;;2.95;1.25;;;37.90;65.90;;;;;;5109326;28;20027;-76
2023/09/07 11:40:47;;;;;;;2.08;1.25;;;38.00;66.10;;;;;;5056830;28;20024;-76
2023/09/07 11:43:20;;;;;;;1.75;1.38;;;38.40;65.80;;;;;;5091266;28;20381;-75
2023/09/07 11:45:47;;;;;;;2.70;1.30;;;38.70;64.70;;;;;;5090268;28;20501;-75
2023/09/07 11:48:13;;;;;;;2.25;1.48;;;38.90;64.10;;;;;;5109271;28;20024;-75
2023/09/07 11:50:40;;;;;;;2.80;1.73;;;39.20;62.70;;;;;;5070858;28;20488;-76
2023/09/07 11:53:07;;;;;;;1.63;1.25;;;39.20;61.00;;;;;;5084183;28;20838;-75
2023/09/07 11:55:34;;;;;;;1.58;1.00;;;39.00;60.40;;;;;;5101264;28;20732;-75
2023/09/07 11:58:02;;;;;;;1.55;1.08;;;39.00;60.60;;;;;;5073874;28;20034;-75
2023/09/07 12:00:30;;;;;;;2.58;1.30;;;39.10;60.70;;;;;;5089851;28;20141;-76
2023/09/07 12:02:57;;;;;;;3.63;1.23;;;39.40;60.10;;;;;;5091060;28;20046;-76
2023/09/07 12:05:24;;;;;;;1.92;0.90;;;39.70;59.40;;;;;;5090040;28;20038;-76
2023/09/07 12:07:53;;;;;;;2.90;1.42;;;39.90;58.40;;;;;;5108230;28;20031;-76
2023/09/07 12:10:20;;;;;;;1.42;0.90;;;40.20;57.60;;;;;;5069886;28;20043;-76
2023/09/07 12:12:46;;;;;;;2.13;1.30;;;40.50;57.10;;;;;;5069302;27;20027;-75
2023/09/07 12:15:13;;;;;;;1.98;1.13;;;40.60;55.80;;;;;;5069903;28;20039;-75
2023/09/07 12:17:40;;;;;;;2.80;1.00;;;40.70;55.50;;;;;;5053746;28;20032;-75
2023/09/07 12:20:10;;;;;;;1.50;1.00;;;40.80;54.60;;;;;;5107324;28;20028;-74
2023/09/07 12:22:37;;;;;;;2.97;1.20;;;40.90;54.40;;;;;;5088489;28;20035;-75
2023/09/07 12:25:07;;;;;;;2.20;1.00;;;41.20;54.00;;;;;;5073351;28;20046;-74
2023/09/07 12:27:34;;;;;;;1.90;1.02;;;41.50;53.40;;;;;;5071636;28;20474;-75
2023/09/07 12:30:06;;;;;;;2.72;1.40;;;41.70;53.50;;;;;;5072936;28;20058;-74
2023/09/07 12:32:32;;;;;;;2.10;1.90;;;42.10;53.00;;;;;;5082406;28;20020;-75
2023/09/07 12:34:59;;;;;;;1.63;1.38;;;42.40;52.60;;;;;;5056398;28;20378;-74
2023/09/07 12:37:26;;;;;;;2.55;1.67;;;42.60;52.20;;;;;;5072600;28;20032;-75
2023/09/07 12:39:52;;;;;;;2.13;1.15;;;42.60;51.20;;;;;;5070665;28;20032;-74
2023/09/07 12:42:19;;;;;;;1.70;1.30;;;42.40;50.80;;;;;;5088695;28;20027;-75
2023/09/07 12:44:45;;;;;;;3.38;1.30;;;42.50;51.00;;;;;;5062727;28;20032;-74
2023/09/07 12:47:11;;;;;;;3.70;1.60;;;42.80;51.30;;;;;;5089593;28;20036;-74
2023/09/07 12:49:37;;;;;;;3.92;1.60;;;43.10;50.80;;;;;;5090417;28;20028;-79
2023/09/07 12:52:08;;;;;;;1.55;1.15;;;43.30;50.40;;;;;;5088793;28;20027;-75
2023/09/07 12:54:36;;;;;;;4.05;1.77;;;43.60;50.40;;;;;;5069875;28;20036;-75
2023/09/07 12:57:03;;;;;;;2.90;1.58;;;43.80;49.90;;;;;;5088022;28;20024;-75
2023/09/07 12:59:30;;;;;;;1.55;1.35;;;44.00;49.80;;;;;;5092868;28;20039;-75
2023/09/07 13:01:56;;;;;;;2.20;1.30;;;44.10;48.50;;;;;;5076800;28;20024;-77
2023/09/07 13:04:22;;;;;;;1.60;1.13;;;44.20;48.20;;;;;;5064099;28;20043;-75
2023/09/07 13:06:49;;;;;;;3.28;1.20;;;44.40;48.10;;;;;;5054674;28;20039;-75
2023/09/07 13:09:15;;;;;;;3.33;1.30;;;44.40;47.70;;;;;;5085489;28;20032;-75
2023/09/07 13:11:42;;;;;;;2.22;1.20;;;44.40;47.90;;;;;;5110339;28;20024;-76
2023/09/07 13:14:08;;;;;;;1.85;1.67;;;44.50;47.90;;;;;;5112432;27;20501;-75
2023/09/07 13:16:35;;;;;;;2.85;1.50;;;44.70;47.70;;;;;;5111977;28;20470;-76
2023/09/07 13:19:01;;;;;;;1.95;1.10;;;44.70;47.40;;;;;;5093532;28;20039;-74
2023/09/07 13:21:27;;;;;;;2.35;1.55;;;44.80;47.40;;;;;;5093538;28;20482;-75
2023/09/07 13:23:54;;;;;;;1.90;1.52;;;45.00;47.00;;;;;;5076514;28;20031;-75
2023/09/07 13:26:20;;;;;;;2.30;1.17;;;44.80;46.30;;;;;;5093347;28;20039;-75
2023/09/07 13:28:46;;;;;;;2.83;1.38;;;44.80;46.40;;;;;;5107832;27;20031;-75
2023/09/07 13:31:13;;;;;;;1.70;1.25;;;44.90;46.20;;;;;;5105107;28;20027;-75
2023/09/07 13:33:39;;;;;;;1.88;1.30;;;45.00;45.90;;;;;;5085720;28;20031;-75
2023/09/07 13:36:06;;;;;;;2.50;1.50;;;44.80;45.70;;;;;;5069267;28;20020;-76
2023/09/07 13:38:32;;;;;;;3.15;1.48;;;44.80;45.50;;;;;;5072752;28;20044;-76
2023/09/07 13:40:59;;;;;;;1.73;1.38;;;44.70;45.30;;;;;;5074766;28;20034;-75
2023/09/07 13:43:25;;;;;;;2.50;1.40;;;44.60;45.40;;;;;;5059641;28;20015;-74
2023/09/07 13:45:52;;;;;;;3.97;1.30;;;44.70;45.60;;;;;;5104975;28;20036;-75